Time;durP1;ratioP1;P1;durP2;ratioP2;P2;SDS_P1;SDS_P2;PMS_P1;PMS_P2;Temp;Humidity;BMP_temperature;BMP_pressure;BME280_temperature;BME280_humidity;BME280_pressure;Samples;Min_cycle;Max_cycle;Signal;HPM_P1;HPM_P2
2023/01/10 00:02:18;;;;;;;5.63;5.43;;;4.70;99.90;;;;;;5061974;28;20052;-73
2023/01/10 00:04:43;;;;;;;4.03;3.92;;;4.70;99.90;;;;;;5053407;28;20470;-72
2023/01/10 00:07:09;;;;;;;3.58;3.47;;;4.70;99.90;;;;;;5035217;28;20036;-73
2023/01/10 00:09:34;;;;;;;3.33;3.22;;;4.70;99.90;;;;;;5053388;28;20021;-74
2023/01/10 00:14:44;;;;;;;4.55;4.43;;;4.80;99.90;;;;;;5072876;28;20501;-72
2023/01/10 00:17:09;;;;;;;2.90;2.80;;;4.80;99.90;;;;;;5072974;28;20028;-73
2023/01/10 00:19:35;;;;;;;4.40;4.30;;;4.80;99.90;;;;;;5073051;28;20397;-73
2023/01/10 00:22:04;;;;;;;3.45;3.35;;;4.80;99.90;;;;;;5055137;28;20024;-72
2023/01/10 00:24:30;;;;;;;3.45;3.35;;;4.80;99.90;;;;;;5073079;28;20016;-73
2023/01/10 00:26:55;;;;;;;4.75;4.63;;;4.80;99.90;;;;;;5072860;28;20055;-73
2023/01/10 00:29:26;;;;;;;3.88;3.78;;;4.80;99.90;;;;;;5054895;28;20050;-73
2023/01/10 00:31:52;;;;;;;3.55;3.45;;;4.80;99.90;;;;;;5072775;28;20105;-73
2023/01/10 00:34:17;;;;;;;3.95;3.85;;;4.80;99.90;;;;;;5072905;28;20470;-73
2023/01/10 00:36:44;;;;;;;4.25;4.15;;;4.90;99.90;;;;;;5072772;28;20039;-74
2023/01/10 00:39:10;;;;;;;4.43;4.32;;;4.80;99.90;;;;;;5072600;28;20390;-74
2023/01/10 00:44:19;;;;;;;4.00;3.90;;;4.90;99.90;;;;;;5053719;28;20585;-74
2023/01/10 00:46:45;;;;;;;3.55;3.45;;;4.90;99.90;;;;;;5055899;28;20021;-73
2023/01/10 00:49:13;;;;;;;3.85;3.75;;;4.90;99.90;;;;;;5064150;28;20025;-74
2023/01/10 00:51:38;;;;;;;4.10;4.00;;;4.80;99.90;;;;;;5067030;28;20024;-74
2023/01/10 00:54:04;;;;;;;3.35;3.25;;;4.80;99.90;;;;;;5061684;28;20021;-74
2023/01/10 00:56:29;;;;;;;5.50;5.30;;;4.80;99.90;;;;;;5056596;28;20064;-74
2023/01/10 00:58:55;;;;;;;3.42;3.33;;;4.70;99.90;;;;;;5052325;28;20028;-74
2023/01/10 01:01:20;;;;;;;4.25;4.15;;;4.70;99.90;;;;;;5036267;28;20505;-74
2023/01/10 01:03:46;;;;;;;3.88;3.78;;;4.70;99.90;;;;;;5061926;28;20020;-74
2023/01/10 01:06:12;;;;;;;3.40;3.30;;;4.70;99.90;;;;;;5058995;28;20025;-74
2023/01/10 01:08:37;;;;;;;4.22;4.13;;;4.70;99.90;;;;;;5062678;28;20390;-74
2023/01/10 01:11:03;;;;;;;5.63;5.43;;;4.70;99.90;;;;;;5065495;28;20025;-74
2023/01/10 01:13:29;;;;;;;5.53;5.32;;;4.70;99.90;;;;;;5051632;28;20033;-73
2023/01/10 01:15:58;;;;;;;3.80;3.70;;;4.70;99.90;;;;;;5051988;28;20025;-73
2023/01/10 01:18:23;;;;;;;4.13;4.03;;;4.70;99.90;;;;;;5051952;28;20021;-73
2023/01/10 01:20:53;;;;;;;4.53;4.43;;;4.70;99.90;;;;;;5047510;28;20585;-73
2023/01/10 01:23:19;;;;;;;3.50;3.40;;;4.70;99.90;;;;;;5052336;28;20028;-73
2023/01/10 01:25:48;;;;;;;4.32;4.22;;;4.70;99.90;;;;;;5057928;28;20017;-73
2023/01/10 01:28:14;;;;;;;4.72;4.57;;;4.60;99.90;;;;;;5033926;28;20154;-73
2023/01/10 01:30:39;;;;;;;4.25;4.15;;;4.60;99.90;;;;;;5065510;28;20059;-73
2023/01/10 01:33:05;;;;;;;3.97;3.88;;;4.60;99.90;;;;;;5063439;28;20536;-73
2023/01/10 01:35:32;;;;;;;5.30;5.10;;;4.50;99.90;;;;;;5058372;28;20081;-72
2023/01/10 01:37:57;;;;;;;2.95;2.85;;;4.50;99.90;;;;;;5042487;28;20075;-73
2023/01/10 01:40:23;;;;;;;8.48;8.07;;;4.50;99.90;;;;;;5065387;28;20101;-72
2023/01/10 01:42:54;;;;;;;5.03;4.85;;;4.50;99.90;;;;;;5051763;28;20024;-72
2023/01/10 01:45:23;;;;;;;5.28;5.07;;;4.50;99.90;;;;;;5056415;28;20517;-72
2023/01/10 01:48:00;;;;;;;3.20;3.00;;;4.50;99.90;;;;;;5059798;28;20107;-72
2023/01/10 01:50:42;;;;;;;3.60;3.50;;;4.50;99.90;;;;;;5051752;28;20024;-72
2023/01/10 01:53:30;;;;;;;3.60;3.50;;;4.50;99.90;;;;;;5064927;28;20028;-71
2023/01/10 01:56:02;;;;;;;2.90;2.80;;;4.60;99.90;;;;;;5052195;28;20057;-73
2023/01/10 01:58:43;;;;;;;2.55;2.45;;;4.60;99.90;;;;;;5057576;28;20024;-73
2023/01/10 02:01:10;;;;;;;2.88;2.78;;;4.70;99.90;;;;;;5057691;28;20028;-72
2023/01/10 02:03:37;;;;;;;2.33;2.22;;;4.60;99.90;;;;;;5063716;28;20637;-73
2023/01/10 02:06:03;;;;;;;2.67;2.58;;;4.60;99.90;;;;;;5066653;28;20047;-73
2023/01/10 02:08:29;;;;;;;4.05;3.50;;;4.60;99.90;;;;;;5045259;28;20029;-73
2023/01/10 02:11:02;;;;;;;2.85;2.75;;;4.60;99.90;;;;;;5065087;28;20032;-72
2023/01/10 02:13:29;;;;;;;3.30;3.20;;;4.60;99.90;;;;;;5051495;28;20025;-72
2023/01/10 02:15:54;;;;;;;3.83;3.72;;;4.60;99.90;;;;;;5037548;28;20025;-73
2023/01/10 02:18:21;;;;;;;2.63;2.53;;;4.60;99.90;;;;;;5051311;28;20031;-73
2023/01/10 02:21:20;;;;;;;2.80;2.70;;;4.60;99.90;;;;;;5065062;28;20020;-73
2023/01/10 02:24:05;;;;;;;2.78;2.67;;;4.60;99.90;;;;;;5046875;28;20552;-73
2023/01/10 02:26:58;;;;;;;4.13;4.03;;;4.60;99.90;;;;;;5053322;28;20028;-74
2023/01/10 02:30:14;;;;;;;3.30;3.20;;;4.60;99.90;;;;;;5044789;28;20513;-73
2023/01/10 02:32:49;;;;;;;3.40;3.30;;;4.60;99.90;;;;;;5023851;28;20051;-74
2023/01/10 02:35:55;;;;;;;2.72;2.63;;;4.60;99.90;;;;;;5060756;28;20028;-73
2023/01/10 02:38:52;;;;;;;3.50;3.40;;;4.60;99.90;;;;;;5050623;28;20119;-73
2023/01/10 02:41:47;;;;;;;3.00;2.90;;;4.60;99.90;;;;;;5064319;28;20127;-72
2023/01/10 02:44:28;;;;;;;4.03;3.92;;;4.60;99.90;;;;;;5051045;28;20021;-73
2023/01/10 02:46:55;;;;;;;3.38;3.28;;;4.60;99.90;;;;;;5043702;28;20029;-74
2023/01/10 02:49:21;;;;;;;3.38;3.28;;;4.60;99.90;;;;;;5075061;28;20107;-74
2023/01/10 02:51:46;;;;;;;3.05;2.95;;;4.60;99.90;;;;;;5053583;28;20055;-74
2023/01/10 02:54:18;;;;;;;2.50;2.40;;;4.60;99.90;;;;;;5047055;28;20054;-74
2023/01/10 02:57:23;;;;;;;3.50;3.40;;;4.70;99.90;;;;;;5061245;28;20520;-73
2023/01/10 03:00:06;;;;;;;3.35;3.25;;;4.70;99.90;;;;;;5058503;28;20517;-73
2023/01/10 03:03:06;;;;;;;2.63;2.53;;;4.60;99.90;;;;;;5067725;28;20497;-73
2023/01/10 03:05:53;;;;;;;2.67;2.58;;;4.70;99.90;;;;;;5047476;28;20025;-73
2023/01/10 03:08:47;;;;;;;3.42;3.33;;;4.70;99.90;;;;;;5047377;28;20020;-72
2023/01/10 03:11:13;;;;;;;3.20;3.10;;;4.70;99.90;;;;;;5043270;28;20028;-73
2023/01/10 03:14:00;;;;;;;2.97;2.88;;;4.70;99.90;;;;;;5074698;28;20437;-73
2023/01/10 03:16:29;;;;;;;3.10;3.00;;;4.70;99.90;;;;;;5061157;28;20024;-73
2023/01/10 03:19:06;;;;;;;4.18;4.07;;;4.60;99.90;;;;;;5043196;28;20021;-73
2023/01/10 03:21:35;;;;;;;3.50;3.40;;;4.60;99.90;;;;;;5056575;28;20021;-73
2023/01/10 03:24:07;;;;;;;3.72;3.63;;;4.60;99.90;;;;;;5072001;28;20021;-74
2023/01/10 03:26:48;;;;;;;3.45;3.35;;;4.60;99.90;;;;;;5064656;28;20029;-73
2023/01/10 03:29:20;;;;;;;2.88;2.78;;;4.60;99.90;;;;;;5056614;28;20044;-73
2023/01/10 03:31:55;;;;;;;3.38;3.28;;;4.60;99.90;;;;;;5043597;28;20045;-72
2023/01/10 03:34:22;;;;;;;2.97;2.88;;;4.60;99.90;;;;;;5048521;28;20039;-72
2023/01/10 03:36:58;;;;;;;2.95;2.85;;;4.60;99.90;;;;;;5059843;28;20029;-72
2023/01/10 03:39:32;;;;;;;3.80;3.70;;;4.60;99.90;;;;;;5074352;28;20413;-73
2023/01/10 03:42:05;;;;;;;2.92;2.83;;;4.60;99.90;;;;;;5060792;28;20021;-72
2023/01/10 03:44:54;;;;;;;3.58;3.47;;;4.60;99.90;;;;;;5063345;28;20017;-72
2023/01/10 03:47:45;;;;;;;4.47;4.38;;;4.60;99.90;;;;;;5053865;28;20037;-73
2023/01/10 03:50:16;;;;;;;3.42;3.33;;;4.60;99.90;;;;;;5042554;28;20056;-73
2023/01/10 03:52:42;;;;;;;2.97;2.88;;;4.60;99.90;;;;;;5044342;28;20025;-71
2023/01/10 03:55:12;;;;;;;3.40;3.30;;;4.70;99.90;;;;;;5067016;28;20029;-72
2023/01/10 03:57:41;;;;;;;3.30;3.20;;;4.70;99.90;;;;;;5065951;28;20020;-72
2023/01/10 04:00:08;;;;;;;3.00;2.90;;;4.70;99.90;;;;;;5060072;28;20020;-72
2023/01/10 04:02:33;;;;;;;4.25;4.05;;;4.70;99.90;;;;;;5043058;28;20056;-72
2023/01/10 04:04:59;;;;;;;3.22;3.13;;;4.70;99.90;;;;;;5066900;28;20074;-72
2023/01/10 04:07:25;;;;;;;2.50;2.40;;;4.70;99.90;;;;;;5065941;28;20028;-72
2023/01/10 04:09:51;;;;;;;3.38;3.28;;;4.70;99.90;;;;;;5042247;28;20025;-72
2023/01/10 04:12:17;;;;;;;2.75;2.65;;;4.80;99.90;;;;;;5060554;28;20091;-73
2023/01/10 04:14:45;;;;;;;3.30;3.20;;;4.80;99.90;;;;;;5041588;28;20039;-73
2023/01/10 04:17:12;;;;;;;3.00;2.90;;;4.80;99.90;;;;;;5042235;28;20032;-72
2023/01/10 04:19:37;;;;;;;3.25;3.15;;;4.80;99.90;;;;;;5048710;28;20048;-72
2023/01/10 04:22:04;;;;;;;3.30;3.20;;;4.80;99.90;;;;;;5066434;28;20421;-73
2023/01/10 04:24:30;;;;;;;2.90;2.80;;;4.80;99.90;;;;;;5066539;28;20013;-72
2023/01/10 04:26:56;;;;;;;2.22;2.13;;;4.80;99.90;;;;;;5066291;28;20052;-72
2023/01/10 04:29:21;;;;;;;2.95;2.83;;;4.80;99.90;;;;;;5048749;28;20519;-72
2023/01/10 04:31:47;;;;;;;1.90;1.80;;;4.80;99.90;;;;;;5048240;28;20036;-72
2023/01/10 04:34:13;;;;;;;2.05;1.98;;;4.80;99.90;;;;;;5059506;28;20047;-71
2023/01/10 04:36:38;;;;;;;1.98;1.98;;;4.90;99.90;;;;;;5059601;28;20437;-72
2023/01/10 04:39:04;;;;;;;2.42;2.33;;;4.80;99.90;;;;;;5041456;28;20492;-72
2023/01/10 04:41:30;;;;;;;2.50;2.40;;;4.80;99.90;;;;;;5059469;28;20104;-72
2023/01/10 04:43:55;;;;;;;2.40;2.30;;;4.70;99.90;;;;;;5066293;28;20016;-72
2023/01/10 04:46:21;;;;;;;2.38;2.28;;;4.80;99.90;;;;;;5065828;28;20025;-72
2023/01/10 04:48:47;;;;;;;2.25;2.13;;;4.70;99.90;;;;;;5059034;28;20466;-73
2023/01/10 04:51:12;;;;;;;2.03;2.03;;;4.80;99.90;;;;;;5041834;28;20070;-73
2023/01/10 04:53:38;;;;;;;2.30;2.20;;;4.80;99.90;;;;;;5041148;28;20639;-73
2023/01/10 04:56:08;;;;;;;4.40;4.10;;;4.70;99.90;;;;;;5059504;28;20489;-73
2023/01/10 04:58:35;;;;;;;2.78;2.67;;;4.60;99.90;;;;;;5046847;28;20030;-73
2023/01/10 05:01:10;;;;;;;2.70;2.50;;;4.60;99.90;;;;;;5072490;28;20075;-73
2023/01/10 05:03:36;;;;;;;1.80;1.70;;;4.60;99.90;;;;;;5064775;28;20032;-74
2023/01/10 05:06:02;;;;;;;1.85;1.85;;;4.60;99.90;;;;;;5065742;28;20389;-73
2023/01/10 05:08:27;;;;;;;2.47;2.30;;;4.60;99.90;;;;;;5060131;28;20046;-73
2023/01/10 05:10:53;;;;;;;2.35;2.25;;;4.60;99.90;;;;;;5058949;28;20490;-72
2023/01/10 05:13:18;;;;;;;3.42;3.33;;;4.60;99.90;;;;;;5064807;28;20513;-72
2023/01/10 05:15:44;;;;;;;1.77;1.77;;;4.50;99.90;;;;;;5065846;28;20460;-71
2023/01/10 05:18:09;;;;;;;3.58;3.38;;;4.50;99.90;;;;;;5059449;28;20458;-72
2023/01/10 05:20:35;;;;;;;2.33;2.22;;;4.40;99.90;;;;;;5071753;28;20032;-71
2023/01/10 05:23:01;;;;;;;2.10;2.10;;;4.40;99.90;;;;;;5034383;28;20025;-71
2023/01/10 05:25:26;;;;;;;2.67;2.58;;;4.40;99.90;;;;;;5052468;28;20441;-72
2023/01/10 05:27:52;;;;;;;2.20;2.10;;;4.40;99.90;;;;;;5047348;28;20525;-72
2023/01/10 05:30:18;;;;;;;2.05;2.03;;;4.40;99.90;;;;;;5047841;28;20024;-71
2023/01/10 05:32:43;;;;;;;5.18;2.70;;;4.50;99.90;;;;;;5058672;28;20043;-71
2023/01/10 05:35:09;;;;;;;2.25;2.15;;;4.50;99.90;;;;;;5058897;28;20717;-71
2023/01/10 05:37:35;;;;;;;3.00;2.90;;;4.40;99.90;;;;;;5044967;28;20371;-72
2023/01/10 05:40:00;;;;;;;2.45;2.35;;;4.40;99.90;;;;;;5058520;28;20408;-71
2023/01/10 05:42:26;;;;;;;2.40;2.30;;;4.40;99.90;;;;;;5047357;28;20021;-71
2023/01/10 05:44:51;;;;;;;2.25;1.90;;;4.30;99.90;;;;;;5051922;28;20021;-71
2023/01/10 05:47:17;;;;;;;2.38;2.28;;;4.40;99.90;;;;;;5058099;28;20039;-72
2023/01/10 05:49:42;;;;;;;2.20;2.10;;;4.40;99.90;;;;;;5040824;28;20111;-72
2023/01/10 05:52:08;;;;;;;2.63;2.53;;;4.40;99.90;;;;;;5065241;28;20452;-72
2023/01/10 05:54:33;;;;;;;3.00;2.90;;;4.40;99.90;;;;;;5064506;28;20028;-72
2023/01/10 05:56:59;;;;;;;2.72;2.63;;;4.40;99.90;;;;;;5058144;28;20028;-72
2023/01/10 05:59:24;;;;;;;2.47;2.38;;;4.40;99.90;;;;;;5058518;28;20103;-72
2023/01/10 06:01:50;;;;;;;3.50;3.40;;;4.40;99.90;;;;;;5051343;28;20112;-73
2023/01/10 06:04:16;;;;;;;2.75;2.65;;;4.30;99.90;;;;;;5051601;28;20025;-72
2023/01/10 06:06:41;;;;;;;6.80;2.97;;;4.40;99.90;;;;;;5057992;28;20516;-72
2023/01/10 06:09:07;;;;;;;4.32;2.03;;;4.40;99.90;;;;;;5058441;28;20048;-72
2023/01/10 06:11:35;;;;;;;2.45;2.35;;;4.50;99.90;;;;;;5071018;28;20024;-72
2023/01/10 06:14:01;;;;;;;2.25;2.17;;;4.50;99.90;;;;;;5058264;28;20060;-71
2023/01/10 06:16:27;;;;;;;2.00;2.00;;;4.40;99.90;;;;;;5064920;28;20032;-72
2023/01/10 06:18:52;;;;;;;9.30;2.90;;;4.30;99.90;;;;;;5064629;28;20020;-72
2023/01/10 06:21:18;;;;;;;2.75;2.65;;;4.30;99.90;;;;;;5058440;28;20103;-73
2023/01/10 06:23:43;;;;;;;2.50;2.40;;;4.30;99.90;;;;;;5071376;28;20021;-72
2023/01/10 06:26:09;;;;;;;3.03;2.92;;;4.30;99.90;;;;;;5040297;28;20504;-73
2023/01/10 06:28:35;;;;;;;2.40;2.30;;;4.40;99.90;;;;;;5040658;28;20021;-73
2023/01/10 06:31:00;;;;;;;2.45;2.35;;;4.40;99.90;;;;;;5046833;28;20076;-73
2023/01/10 06:33:26;;;;;;;2.10;2.10;;;4.40;99.90;;;;;;5064169;28;20025;-73
2023/01/10 06:35:51;;;;;;;3.58;3.47;;;4.40;99.90;;;;;;5051981;28;20029;-73
2023/01/10 06:38:17;;;;;;;2.15;2.13;;;4.40;99.90;;;;;;5051163;28;20031;-73
2023/01/10 06:40:43;;;;;;;2.40;2.30;;;4.40;99.90;;;;;;5064839;28;20024;-73
2023/01/10 06:43:08;;;;;;;2.20;2.10;;;4.40;99.90;;;;;;5063686;28;20025;-73
2023/01/10 06:45:34;;;;;;;2.78;2.67;;;4.40;99.90;;;;;;5058033;28;20024;-73
2023/01/10 06:48:00;;;;;;;2.70;2.60;;;4.50;99.90;;;;;;5058869;28;20075;-73
2023/01/10 06:50:25;;;;;;;2.47;2.38;;;4.50;99.90;;;;;;5056766;28;20066;-74
2023/01/10 06:52:56;;;;;;;2.30;2.20;;;4.40;99.90;;;;;;5053201;28;20031;-73
2023/01/10 06:55:21;;;;;;;2.95;2.85;;;4.50;99.90;;;;;;5039848;28;20560;-73
2023/01/10 06:57:47;;;;;;;4.03;3.83;;;4.50;99.90;;;;;;5058193;28;20108;-74
2023/01/10 07:00:13;;;;;;;2.42;2.33;;;4.50;99.90;;;;;;5070835;28;20020;-73
2023/01/10 07:02:39;;;;;;;2.38;2.28;;;4.40;99.90;;;;;;5052911;28;20025;-73
2023/01/10 07:05:04;;;;;;;2.50;2.40;;;4.40;99.90;;;;;;5040005;28;20035;-73
2023/01/10 07:07:30;;;;;;;1.90;1.90;;;4.40;99.90;;;;;;5057580;28;20052;-73
2023/01/10 07:09:56;;;;;;;1.80;1.80;;;4.40;99.90;;;;;;5053139;28;20025;-73
2023/01/10 07:12:22;;;;;;;2.58;2.47;;;4.40;99.90;;;;;;5058578;28;20075;-72
2023/01/10 07:14:48;;;;;;;1.75;1.75;;;4.40;99.90;;;;;;5067883;28;20433;-75
2023/01/10 07:17:13;;;;;;;2.00;2.00;;;4.40;99.90;;;;;;5049562;28;20502;-75
2023/01/10 07:19:39;;;;;;;2.78;2.67;;;4.40;99.90;;;;;;5054623;28;20025;-75
2023/01/10 07:22:04;;;;;;;1.58;1.58;;;4.40;99.90;;;;;;5054351;28;20025;-74
2023/01/10 07:24:30;;;;;;;1.90;1.90;;;4.40;99.90;;;;;;5067738;28;20040;-73
2023/01/10 07:26:55;;;;;;;2.72;2.63;;;4.60;99.90;;;;;;5049175;28;20024;-73
2023/01/10 07:29:21;;;;;;;2.55;2.45;;;4.40;99.90;;;;;;5060868;28;20485;-73
2023/01/10 07:31:46;;;;;;;2.25;2.17;;;4.40;99.90;;;;;;5061633;28;20033;-73
2023/01/10 07:34:12;;;;;;;2.03;2.03;;;4.40;99.90;;;;;;5049794;28;20053;-73
2023/01/10 07:36:38;;;;;;;2.63;2.47;;;4.50;99.90;;;;;;5057802;28;20805;-73
2023/01/10 07:39:04;;;;;;;2.53;2.40;;;4.40;99.90;;;;;;5053175;28;20111;-73
2023/01/10 07:41:29;;;;;;;2.53;2.35;;;4.40;99.90;;;;;;5043707;28;20095;-73
2023/01/10 07:43:55;;;;;;;2.17;2.13;;;4.40;99.90;;;;;;5067781;28;20025;-72
2023/01/10 07:46:20;;;;;;;1.65;1.65;;;4.40;99.90;;;;;;5066091;28;20024;-73
2023/01/10 07:48:47;;;;;;;2.42;2.33;;;4.40;99.90;;;;;;5060414;28;20109;-73
2023/01/10 07:51:13;;;;;;;2.35;2.28;;;4.40;99.90;;;;;;5061503;28;20032;-73
2023/01/10 07:53:39;;;;;;;1.92;1.92;;;4.40;99.90;;;;;;5067166;28;20445;-73
2023/01/10 07:56:04;;;;;;;2.40;2.30;;;4.40;99.90;;;;;;5036205;28;20060;-73
2023/01/10 07:58:31;;;;;;;2.08;2.03;;;4.30;99.90;;;;;;5058493;28;20028;-73
2023/01/10 08:01:02;;;;;;;1.83;1.83;;;4.40;99.90;;;;;;5073728;28;20104;-73
2023/01/10 08:03:28;;;;;;;2.97;2.88;;;4.40;99.90;;;;;;5073630;28;20108;-73
2023/01/10 08:06:03;;;;;;;2.15;2.13;;;4.40;99.90;;;;;;5073465;28;20046;-73
2023/01/10 08:08:29;;;;;;;1.80;1.80;;;4.50;99.90;;;;;;5060528;28;20090;-73
2023/01/10 08:10:56;;;;;;;2.28;2.20;;;4.40;99.90;;;;;;5058666;28;20434;-73
2023/01/10 08:13:22;;;;;;;3.03;2.92;;;4.50;99.90;;;;;;5061643;28;20029;-73
2023/01/10 08:15:51;;;;;;;2.40;2.30;;;4.50;99.90;;;;;;5059718;28;20043;-73
2023/01/10 08:18:17;;;;;;;2.15;2.10;;;4.50;99.90;;;;;;5064044;28;20108;-73
2023/01/10 08:20:45;;;;;;;2.40;2.30;;;4.50;99.90;;;;;;5048490;28;20478;-73
2023/01/10 08:23:11;;;;;;;2.92;2.83;;;4.50;99.90;;;;;;5052772;28;20020;-73
2023/01/10 08:25:36;;;;;;;2.28;2.17;;;4.50;99.90;;;;;;5066634;28;20020;-73
2023/01/10 08:28:02;;;;;;;1.95;1.95;;;4.50;99.90;;;;;;5043867;28;20036;-73
2023/01/10 08:30:28;;;;;;;1.42;1.42;;;4.60;99.90;;;;;;5072908;28;20024;-73
2023/01/10 08:32:53;;;;;;;1.20;1.20;;;4.60;99.90;;;;;;5045719;28;20033;-74
2023/01/10 08:35:19;;;;;;;4.85;2.22;;;4.70;99.90;;;;;;5066280;28;20505;-73
2023/01/10 08:37:44;;;;;;;1.65;1.65;;;4.60;99.90;;;;;;5061847;28;20040;-73
2023/01/10 08:40:11;;;;;;;1.60;1.60;;;4.60;99.90;;;;;;5041247;28;20029;-73
2023/01/10 08:42:37;;;;;;;2.72;2.63;;;4.60;99.90;;;;;;5072713;28;20411;-73
2023/01/10 08:45:03;;;;;;;1.77;1.77;;;4.60;99.90;;;;;;5056880;28;20100;-74
2023/01/10 08:47:29;;;;;;;1.75;1.75;;;4.60;99.90;;;;;;5061855;28;20478;-73
2023/01/10 08:49:54;;;;;;;2.00;2.00;;;4.70;99.90;;;;;;5059304;28;20075;-74
2023/01/10 08:52:20;;;;;;;1.95;1.95;;;4.60;99.90;;;;;;5063695;28;20079;-74
2023/01/10 08:54:46;;;;;;;1.90;1.90;;;4.60;99.90;;;;;;5065983;28;20035;-74
2023/01/10 08:57:11;;;;;;;1.90;1.90;;;4.70;99.90;;;;;;5060386;28;20086;-74
2023/01/10 08:59:37;;;;;;;2.28;2.17;;;4.70;99.90;;;;;;5041261;28;20025;-74
2023/01/10 09:02:03;;;;;;;2.20;2.10;;;4.60;99.90;;;;;;5062117;28;20021;-76
2023/01/10 09:04:30;;;;;;;8.40;3.85;;;4.60;99.90;;;;;;5046490;28;20024;-75
2023/01/10 09:06:55;;;;;;;1.90;1.90;;;4.60;99.90;;;;;;5061756;28;20096;-73
2023/01/10 09:09:21;;;;;;;2.38;2.28;;;4.60;99.90;;;;;;5063804;28;20107;-73
2023/01/10 09:11:47;;;;;;;1.85;1.75;;;4.60;99.90;;;;;;5058476;28;20036;-74
2023/01/10 09:14:12;;;;;;;2.03;2.03;;;4.60;99.90;;;;;;5056973;28;20024;-73
2023/01/10 09:16:38;;;;;;;5.10;4.55;;;4.60;99.90;;;;;;5062988;28;20036;-73
2023/01/10 09:19:04;;;;;;;7.63;6.03;;;4.60;99.90;;;;;;5065349;28;20020;-73
2023/01/10 09:21:30;;;;;;;3.15;2.88;;;4.70;99.90;;;;;;5051990;28;20483;-73
2023/01/10 09:23:55;;;;;;;4.65;3.92;;;4.70;99.90;;;;;;5047632;28;20109;-74
2023/01/10 09:26:21;;;;;;;10.90;4.63;;;4.70;99.90;;;;;;5042732;28;20113;-73
2023/01/10 09:28:48;;;;;;;3.92;3.72;;;4.60;99.90;;;;;;5058574;28;20029;-73
2023/01/10 09:31:13;;;;;;;3.58;3.38;;;4.60;99.90;;;;;;5045558;28;20035;-73
2023/01/10 09:33:41;;;;;;;1.70;1.70;;;4.60;99.90;;;;;;5059018;28;20029;-73
2023/01/10 09:36:07;;;;;;;1.88;1.88;;;4.60;99.90;;;;;;5065932;28;20497;-74
2023/01/10 09:38:33;;;;;;;2.80;2.70;;;4.70;99.90;;;;;;5061255;28;20028;-73
2023/01/10 09:41:08;;;;;;;2.60;2.50;;;4.80;99.90;;;;;;5045255;28;20017;-73
2023/01/10 09:44:02;;;;;;;1.60;1.60;;;4.80;99.90;;;;;;5065478;28;20075;-73
2023/01/10 09:47:01;;;;;;;2.53;2.42;;;5.00;99.90;;;;;;5047275;28;20074;-73
2023/01/10 09:49:46;;;;;;;1.73;1.73;;;5.00;99.90;;;;;;5045389;28;20024;-73
2023/01/10 09:52:21;;;;;;;2.33;2.22;;;5.00;99.90;;;;;;5028847;28;20021;-73
2023/01/10 09:54:48;;;;;;;1.50;1.50;;;5.00;99.90;;;;;;5065470;28;20021;-73
2023/01/10 09:57:20;;;;;;;2.80;2.42;;;5.00;99.90;;;;;;5060270;28;20480;-73
2023/01/10 09:59:49;;;;;;;3.70;3.50;;;5.10;99.90;;;;;;5055476;28;20021;-72
2023/01/10 10:02:26;;;;;;;1.52;1.52;;;5.20;99.90;;;;;;5051616;28;20021;-72
2023/01/10 10:05:17;;;;;;;1.38;1.38;;;5.10;99.90;;;;;;5064979;28;20139;-72
2023/01/10 10:07:43;;;;;;;1.83;1.75;;;5.20;99.90;;;;;;5065112;28;20024;-74
2023/01/10 10:10:21;;;;;;;2.10;2.00;;;5.30;99.90;;;;;;5051736;28;20593;-74
2023/01/10 10:12:49;;;;;;;2.13;2.05;;;5.20;99.90;;;;;;5065217;28;20029;-73
2023/01/10 10:15:18;;;;;;;2.10;2.00;;;5.20;99.90;;;;;;5061551;28;20111;-73
2023/01/10 10:18:06;;;;;;;1.88;1.77;;;5.10;99.90;;;;;;5057721;28;20389;-72
2023/01/10 10:20:44;;;;;;;1.38;1.38;;;5.10;99.90;;;;;;5058502;28;20471;-73
2023/01/10 10:23:31;;;;;;;1.58;1.58;;;5.20;99.90;;;;;;5029492;28;20390;-73
2023/01/10 10:26:06;;;;;;;2.30;2.10;;;5.20;99.90;;;;;;5058354;28;20146;-73
2023/01/10 10:28:34;;;;;;;1.40;1.40;;;5.20;99.90;;;;;;5059495;28;20021;-73
2023/01/10 10:31:17;;;;;;;1.48;1.48;;;5.10;99.90;;;;;;5064819;28;20086;-72
2023/01/10 10:34:12;;;;;;;2.63;2.53;;;5.10;99.90;;;;;;5064842;28;20116;-73
2023/01/10 10:36:46;;;;;;;5.88;2.85;;;5.00;99.90;;;;;;5062948;28;20024;-73
2023/01/10 10:39:17;;;;;;;3.58;2.33;;;5.10;99.90;;;;;;5057723;28;20056;-73
2023/01/10 10:41:46;;;;;;;2.42;2.22;;;5.10;99.90;;;;;;5040488;28;20060;-72
2023/01/10 10:44:26;;;;;;;1.23;1.23;;;5.10;99.90;;;;;;5064354;28;20040;-74
2023/01/10 10:46:53;;;;;;;3.70;2.33;;;5.10;99.90;;;;;;5048508;28;20024;-75
2023/01/10 10:49:58;;;;;;;1.00;1.00;;;5.10;99.90;;;;;;5064435;28;20043;-73
2023/01/10 10:52:29;;;;;;;1.10;1.10;;;5.10;99.90;;;;;;5050775;28;20021;-74
2023/01/10 10:54:55;;;;;;;1.10;1.10;;;5.20;99.90;;;;;;5075007;28;20104;-73
2023/01/10 10:57:23;;;;;;;2.30;1.13;;;5.20;99.90;;;;;;5069357;28;20159;-73
2023/01/10 10:59:49;;;;;;;1.35;1.35;;;5.20;99.90;;;;;;5059703;28;20067;-73
2023/01/10 11:02:24;;;;;;;1.17;1.17;;;5.30;99.90;;;;;;5046800;28;20028;-72
2023/01/10 11:04:55;;;;;;;10.77;2.03;;;5.30;99.90;;;;;;5056989;28;20394;-72
2023/01/10 11:07:21;;;;;;;0.90;0.90;;;5.40;99.90;;;;;;5066403;28;20107;-72
2023/01/10 11:09:52;;;;;;;0.70;0.70;;;5.30;99.90;;;;;;5061040;28;20186;-72
2023/01/10 11:12:23;;;;;;;2.05;1.42;;;5.30;99.90;;;;;;5062302;28;20021;-72
2023/01/10 11:14:50;;;;;;;3.72;3.47;;;5.40;99.90;;;;;;5050068;28;20495;-73
2023/01/10 11:17:27;;;;;;;0.80;0.80;;;5.40;99.90;;;;;;5067515;28;20657;-72
2023/01/10 11:20:01;;;;;;;3.35;1.75;;;5.40;99.90;;;;;;5049968;28;20021;-73
2023/01/10 11:22:29;;;;;;;1.00;1.00;;;5.40;99.90;;;;;;5060912;28;20017;-73
2023/01/10 11:25:00;;;;;;;1.58;1.30;;;5.40;99.90;;;;;;5065425;28;20075;-73
2023/01/10 11:27:29;;;;;;;1.00;1.00;;;5.50;99.90;;;;;;5067816;28;20017;-73
2023/01/10 11:30:07;;;;;;;1.30;1.30;;;5.50;99.90;;;;;;5064389;28;20029;-73
2023/01/10 11:32:36;;;;;;;0.90;0.90;;;5.50;99.90;;;;;;5060903;28;20035;-72
2023/01/10 11:35:18;;;;;;;1.42;1.33;;;5.40;99.90;;;;;;5062413;28;20029;-72
2023/01/10 11:38:16;;;;;;;0.82;0.82;;;5.50;99.90;;;;;;5027361;28;20029;-73
2023/01/10 11:41:00;;;;;;;6.75;1.60;;;5.40;99.90;;;;;;5059730;28;20095;-72
2023/01/10 11:43:36;;;;;;;0.77;0.77;;;5.40;99.90;;;;;;5043091;28;20032;-73
2023/01/10 11:46:19;;;;;;;0.60;0.60;;;5.40;99.90;;;;;;5064968;28;20501;-72
2023/01/10 11:49:05;;;;;;;1.08;1.08;;;5.40;99.90;;;;;;5054375;28;20028;-73
2023/01/10 11:51:44;;;;;;;0.80;0.80;;;5.40;99.90;;;;;;5060562;28;20075;-73
2023/01/10 11:54:14;;;;;;;2.65;2.20;;;5.40;99.90;;;;;;5056173;28;20521;-73
2023/01/10 11:56:42;;;;;;;0.50;0.50;;;5.40;99.90;;;;;;5060633;28;20028;-72
2023/01/10 11:59:17;;;;;;;0.50;0.50;;;5.40;99.90;;;;;;5044975;28;20056;-73
2023/01/10 12:01:54;;;;;;;9.27;1.00;;;5.40;99.90;;;;;;5035461;28;20021;-72
2023/01/10 12:04:21;;;;;;;3.30;2.00;;;5.30;99.90;;;;;;5067447;28;20081;-73
2023/01/10 12:06:52;;;;;;;4.00;2.15;;;5.30;99.90;;;;;;5061031;28;20016;-74
2023/01/10 12:09:38;;;;;;;1.00;1.00;;;5.40;99.90;;;;;;5060432;28;20070;-73
2023/01/10 12:12:27;;;;;;;1.33;1.25;;;5.30;99.90;;;;;;5044485;28;20017;-72
2023/01/10 12:14:55;;;;;;;0.95;0.93;;;5.20;99.90;;;;;;5039913;28;20490;-73
2023/01/10 12:17:26;;;;;;;1.48;1.40;;;5.10;99.90;;;;;;5066480;28;20036;-73
2023/01/10 12:19:55;;;;;;;0.70;0.70;;;4.90;99.90;;;;;;5061927;28;20066;-73
2023/01/10 12:22:47;;;;;;;2.60;0.93;;;4.90;99.90;;;;;;5059959;28;20057;-73
2023/01/10 12:25:18;;;;;;;1.00;1.00;;;4.90;99.90;;;;;;5052220;28;20037;-72
2023/01/10 12:27:47;;;;;;;0.90;0.90;;;4.90;99.90;;;;;;5066597;28;20049;-72
2023/01/10 12:30:16;;;;;;;0.80;0.80;;;5.00;99.90;;;;;;5048532;28;20118;-73
2023/01/10 12:32:47;;;;;;;0.60;0.60;;;5.00;99.90;;;;;;5042347;28;20067;-72
2023/01/10 12:35:19;;;;;;;1.33;1.23;;;5.20;99.90;;;;;;5041989;28;20055;-73
2023/01/10 12:37:50;;;;;;;0.60;0.60;;;5.10;99.90;;;;;;5046196;28;20025;-73
2023/01/10 12:40:42;;;;;;;0.90;0.90;;;5.20;99.90;;;;;;5066509;28;20494;-73
2023/01/10 12:46:13;;;;;;;1.02;1.02;;;5.00;99.90;;;;;;5053618;28;20039;-72
2023/01/10 12:48:50;;;;;;;3.17;1.55;;;5.10;99.90;;;;;;5059300;28;20060;-73
2023/01/10 12:51:23;;;;;;;3.55;1.90;;;5.10;99.90;;;;;;5059475;28;20048;-73
2023/01/10 12:53:57;;;;;;;1.15;1.15;;;5.10;99.90;;;;;;5035981;28;20082;-73
2023/01/10 12:56:23;;;;;;;1.40;1.40;;;5.10;99.90;;;;;;5055520;28;20021;-72
2023/01/10 12:59:36;;;;;;;2.90;1.27;;;5.10;99.90;;;;;;5061171;28;20035;-73
2023/01/10 13:02:13;;;;;;;1.17;1.17;;;5.00;99.90;;;;;;5049254;28;20024;-73
2023/01/10 13:04:41;;;;;;;0.57;0.57;;;4.90;99.90;;;;;;5056576;28;20045;-72
2023/01/10 13:07:11;;;;;;;1.00;1.00;;;4.90;99.90;;;;;;5052748;28;20025;-73
2023/01/10 13:09:40;;;;;;;10.55;1.00;;;5.00;99.90;;;;;;5052626;28;20482;-72
2023/01/10 13:12:32;;;;;;;1.60;1.50;;;4.90;99.90;;;;;;5052466;28;20063;-73
2023/01/10 13:15:05;;;;;;;1.13;1.13;;;5.00;99.90;;;;;;5040698;28;20033;-73
2023/01/10 13:17:30;;;;;;;0.70;0.70;;;5.10;99.90;;;;;;5040792;28;20060;-74
2023/01/10 13:20:15;;;;;;;10.85;5.07;;;5.10;99.90;;;;;;5045472;28;20059;-73
2023/01/10 13:22:42;;;;;;;1.38;1.33;;;5.20;99.90;;;;;;5070325;28;20066;-72
2023/01/10 13:25:25;;;;;;;2.88;2.60;;;5.20;99.90;;;;;;5060273;28;20029;-76